Time;durP1;ratioP1;P1;durP2;ratioP2;P2;SDS_P1;SDS_P2;PMS_P1;PMS_P2;Temp;Humidity;BMP_temperature;BMP_pressure;BME280_temperature;BME280_humidity;BME280_pressure;Samples;Min_cycle;Max_cycle;Signal;HPM_P1;HPM_P2
2023/07/19 00:01:20;;;;;;;3.92;1.30;;;19.30;86.50;;;;;;4970205;28;20553;-82
2023/07/19 00:03:48;;;;;;;6.03;1.70;;;19.30;86.50;;;;;;4964878;28;20027;-82
2023/07/19 00:06:14;;;;;;;2.30;1.17;;;19.20;86.80;;;;;;4967403;28;20062;-82
2023/07/19 00:08:40;;;;;;;4.68;1.50;;;19.10;87.10;;;;;;4965501;28;20409;-82
2023/07/19 00:11:05;;;;;;;3.90;1.63;;;19.00;87.50;;;;;;4968135;28;20027;-82
2023/07/19 00:13:31;;;;;;;3.15;1.25;;;18.90;88.10;;;;;;4966908;28;20435;-82
2023/07/19 00:15:56;;;;;;;5.95;1.52;;;18.90;88.80;;;;;;4959883;28;20011;-82
2023/07/19 00:18:22;;;;;;;3.72;1.30;;;18.90;88.50;;;;;;4968146;28;20039;-82
2023/07/19 00:20:48;;;;;;;4.35;1.50;;;18.90;89.70;;;;;;4967672;28;20101;-83
2023/07/19 00:23:13;;;;;;;11.57;1.63;;;18.90;90.00;;;;;;4950879;28;20026;-80
2023/07/19 00:25:39;;;;;;;2.10;1.48;;;18.90;90.00;;;;;;4967963;28;20042;-83
2023/07/19 00:28:05;;;;;;;3.45;1.63;;;18.90;90.30;;;;;;4959389;28;20454;-81
2023/07/19 00:30:31;;;;;;;6.75;1.55;;;18.80;90.30;;;;;;4967305;28;20039;-81
2023/07/19 00:32:57;;;;;;;6.55;1.58;;;18.80;90.40;;;;;;4970032;28;20030;-81
2023/07/19 00:35:22;;;;;;;2.15;1.42;;;18.80;90.60;;;;;;4951519;28;20077;-80
2023/07/19 00:37:50;;;;;;;5.18;1.67;;;18.60;90.60;;;;;;4969111;28;20027;-81
2023/07/19 00:40:16;;;;;;;6.18;1.40;;;18.60;90.80;;;;;;4951306;28;20390;-80
2023/07/19 00:42:42;;;;;;;5.22;1.50;;;18.60;90.80;;;;;;4966469;28;20031;-80
2023/07/19 00:48:30;;;;;;;3.35;1.52;;;18.50;90.90;;;;;;4962954;28;20053;-81
2023/07/19 00:50:59;;;;;;;4.82;1.52;;;18.40;91.10;;;;;;4948257;28;20057;-80
2023/07/19 00:53:25;;;;;;;3.53;1.40;;;18.30;91.20;;;;;;4955841;28;20027;-80
2023/07/19 00:55:51;;;;;;;10.73;2.28;;;18.30;91.40;;;;;;4964979;28;20019;-80
2023/07/19 00:58:18;;;;;;;2.67;1.42;;;18.30;91.50;;;;;;4966489;28;20018;-81
2023/07/19 01:00:47;;;;;;;7.32;1.52;;;18.30;91.30;;;;;;4965497;28;20615;-80
2023/07/19 01:03:12;;;;;;;3.40;1.58;;;18.30;91.30;;;;;;4967086;28;20125;-81
2023/07/19 01:05:39;;;;;;;4.72;1.90;;;18.30;91.60;;;;;;4949991;28;20038;-80
2023/07/19 01:08:05;;;;;;;3.30;1.25;;;18.40;91.40;;;;;;4965757;28;20087;-81
2023/07/19 01:10:31;;;;;;;2.03;1.40;;;18.30;91.60;;;;;;4967249;28;20031;-80
2023/07/19 01:13:07;;;;;;;5.47;1.73;;;18.00;92.00;;;;;;4966059;28;20100;-81
2023/07/19 01:15:33;;;;;;;3.80;1.27;;;17.90;92.40;;;;;;4966468;28;20038;-81
2023/07/19 01:17:59;;;;;;;8.32;1.55;;;17.90;92.40;;;;;;4967366;28;20023;-81
2023/07/19 01:20:25;;;;;;;2.75;1.30;;;18.00;92.20;;;;;;4966979;28;20049;-81
2023/07/19 01:22:50;;;;;;;4.30;1.38;;;18.00;92.20;;;;;;4966323;28;20030;-81
2023/07/19 01:25:16;;;;;;;2.28;1.63;;;18.00;92.20;;;;;;4967462;28;20070;-80
2023/07/19 01:27:44;;;;;;;6.30;1.42;;;18.00;92.20;;;;;;4965944;28;20552;-81
2023/07/19 01:30:10;;;;;;;5.43;1.48;;;18.00;92.20;;;;;;4966196;28;20038;-81
2023/07/19 01:32:38;;;;;;;3.03;1.40;;;18.10;92.30;;;;;;4967726;28;20030;-81
2023/07/19 01:35:04;;;;;;;7.18;1.42;;;18.10;92.00;;;;;;4968270;28;20030;-80
2023/07/19 01:37:29;;;;;;;3.22;1.40;;;18.10;92.20;;;;;;4966305;28;20525;-80
2023/07/19 01:39:55;;;;;;;4.00;1.20;;;18.10;92.30;;;;;;4966916;28;20046;-80
2023/07/19 01:42:21;;;;;;;4.28;1.15;;;18.10;92.20;;;;;;4950984;28;20027;-81
2023/07/19 01:44:47;;;;;;;2.22;1.30;;;18.10;92.40;;;;;;4965984;28;20034;-80
2023/07/19 01:47:12;;;;;;;2.90;1.40;;;18.10;92.30;;;;;;4956448;28;20029;-80
2023/07/19 01:49:39;;;;;;;8.88;1.55;;;18.10;92.30;;;;;;4965583;28;20109;-80
2023/07/19 01:52:07;;;;;;;7.68;1.52;;;18.00;92.10;;;;;;4950036;28;20022;-80
2023/07/19 01:54:33;;;;;;;2.58;1.52;;;17.90;92.40;;;;;;4965262;28;20046;-81
2023/07/19 01:56:59;;;;;;;2.83;1.40;;;17.70;92.80;;;;;;4966551;28;20027;-79
2023/07/19 01:59:25;;;;;;;5.72;1.40;;;17.50;93.10;;;;;;4949090;28;20023;-81
2023/07/19 02:01:51;;;;;;;6.88;1.48;;;17.60;93.30;;;;;;4964935;28;20105;-81
2023/07/19 02:04:19;;;;;;;3.65;1.40;;;17.60;93.30;;;;;;4966805;28;20039;-81
2023/07/19 02:06:45;;;;;;;2.95;1.48;;;17.70;93.40;;;;;;4965240;28;20046;-80
2023/07/19 02:09:11;;;;;;;3.72;1.42;;;17.50;93.50;;;;;;4968458;28;20399;-81
2023/07/19 02:11:36;;;;;;;6.15;1.95;;;17.50;94.00;;;;;;4956351;28;20031;-81
2023/07/19 02:14:03;;;;;;;3.65;1.90;;;17.50;94.10;;;;;;4967026;28;20046;-81
2023/07/19 02:16:28;;;;;;;3.47;1.77;;;17.40;94.10;;;;;;4967704;28;20025;-81
2023/07/19 02:18:54;;;;;;;3.17;1.67;;;17.50;94.20;;;;;;4964750;28;20030;-80
2023/07/19 02:21:19;;;;;;;2.67;2.10;;;17.50;94.20;;;;;;4965214;28;20107;-80
2023/07/19 02:23:45;;;;;;;6.32;2.50;;;17.60;94.40;;;;;;4963804;28;20023;-81
2023/07/19 02:26:10;;;;;;;7.63;2.60;;;17.60;94.50;;;;;;4962112;28;20058;-81
2023/07/19 02:28:40;;;;;;;3.72;2.40;;;17.70;94.40;;;;;;4964490;28;20019;-81
2023/07/19 02:31:09;;;;;;;9.18;2.20;;;17.60;94.60;;;;;;4964187;28;20094;-81
2023/07/19 02:33:35;;;;;;;8.45;1.92;;;17.60;94.40;;;;;;4963410;28;20039;-81
2023/07/19 02:36:00;;;;;;;10.52;2.05;;;17.50;94.40;;;;;;4946046;28;20053;-80
2023/07/19 02:38:26;;;;;;;2.10;1.80;;;17.60;94.70;;;;;;4953337;28;20495;-82
2023/07/19 02:41:00;;;;;;;5.50;2.72;;;17.60;94.40;;;;;;4965625;28;20027;-81
2023/07/19 02:43:29;;;;;;;7.25;2.67;;;17.70;94.70;;;;;;4966400;28;20152;-80
2023/07/19 02:45:55;;;;;;;6.55;2.70;;;17.80;94.50;;;;;;4962725;28;20039;-81
2023/07/19 02:48:21;;;;;;;9.10;2.38;;;17.60;94.50;;;;;;4946799;28;20402;-82
2023/07/19 02:50:48;;;;;;;7.05;2.20;;;17.60;94.80;;;;;;4964994;28;20115;-80
2023/07/19 02:53:14;;;;;;;5.03;2.20;;;17.60;94.60;;;;;;4965087;28;20033;-80
2023/07/19 02:55:42;;;;;;;3.05;2.33;;;17.60;94.70;;;;;;4962304;28;20045;-79
2023/07/19 02:58:07;;;;;;;11.38;2.63;;;17.70;94.60;;;;;;4965705;28;20042;-80
2023/07/19 03:00:33;;;;;;;3.03;2.00;;;17.70;94.50;;;;;;4965224;28;20454;-80
2023/07/19 03:02:58;;;;;;;5.88;2.00;;;17.70;94.50;;;;;;4948152;28;20129;-81
2023/07/19 03:05:24;;;;;;;5.13;1.95;;;17.70;94.40;;;;;;4964610;28;20379;-80
2023/07/19 03:07:50;;;;;;;2.88;2.15;;;17.70;94.60;;;;;;4963856;28;20077;-80
2023/07/19 03:10:16;;;;;;;6.25;2.10;;;17.70;94.60;;;;;;4964473;28;20398;-81
2023/07/19 03:12:42;;;;;;;3.10;2.10;;;17.70;94.60;;;;;;4962799;28;20023;-80
2023/07/19 03:15:09;;;;;;;4.68;2.25;;;17.70;94.80;;;;;;4963592;28;20058;-81
2023/07/19 03:17:35;;;;;;;9.73;2.88;;;17.60;94.70;;;;;;4964507;28;20026;-80
2023/07/19 03:20:00;;;;;;;9.93;3.17;;;17.60;94.70;;;;;;4965992;28;20506;-80
2023/07/19 03:22:26;;;;;;;7.45;3.00;;;17.60;94.90;;;;;;4963868;28;20105;-80
2023/07/19 03:24:51;;;;;;;9.85;3.03;;;17.60;95.00;;;;;;4953626;28;20069;-80
2023/07/19 03:27:17;;;;;;;4.88;2.88;;;17.60;95.10;;;;;;4964488;28;20110;-80
2023/07/19 03:29:43;;;;;;;6.38;2.80;;;17.60;95.10;;;;;;4953503;28;20027;-81
2023/07/19 03:32:08;;;;;;;12.32;2.40;;;17.60;95.20;;;;;;4965626;28;20179;-80
2023/07/19 03:34:34;;;;;;;5.60;2.92;;;17.60;95.20;;;;;;4962289;28;20101;-81
2023/07/19 03:37:00;;;;;;;6.68;3.33;;;17.60;95.20;;;;;;4964165;28;20023;-80
2023/07/19 03:39:28;;;;;;;4.88;3.17;;;17.40;95.50;;;;;;4945821;28;20022;-80
2023/07/19 03:41:53;;;;;;;4.88;2.72;;;17.30;96.00;;;;;;4955680;28;20026;-80
2023/07/19 03:44:19;;;;;;;3.28;2.97;;;17.20;96.20;;;;;;4963922;28;20447;-81
2023/07/19 03:46:47;;;;;;;4.15;2.60;;;17.20;96.10;;;;;;4963920;28;20042;-80
2023/07/19 03:49:13;;;;;;;3.90;3.00;;;17.30;96.10;;;;;;4965542;28;20037;-80
2023/07/19 03:51:38;;;;;;;7.95;2.78;;;17.30;96.10;;;;;;4965167;28;20117;-80
2023/07/19 03:54:04;;;;;;;4.85;3.00;;;17.30;96.20;;;;;;4964558;28;20041;-81
2023/07/19 03:56:30;;;;;;;9.75;3.25;;;17.30;96.30;;;;;;4946469;28;20062;-80
2023/07/19 03:58:55;;;;;;;5.75;2.60;;;17.30;96.20;;;;;;4963958;28;20035;-80
2023/07/19 04:01:23;;;;;;;4.03;3.00;;;17.30;96.10;;;;;;4949587;28;20026;-80
2023/07/19 04:03:49;;;;;;;5.35;3.10;;;17.40;96.30;;;;;;4966954;28;20054;-80
2023/07/19 04:06:17;;;;;;;6.38;2.92;;;17.30;96.30;;;;;;4988288;28;20023;-80
2023/07/19 04:08:45;;;;;;;4.72;3.00;;;17.40;96.20;;;;;;4988977;28;20038;-80
2023/07/19 04:11:10;;;;;;;4.43;2.47;;;17.30;96.10;;;;;;4963948;28;20031;-80
2023/07/19 04:13:36;;;;;;;10.32;3.60;;;17.40;96.20;;;;;;4963113;28;20035;-80
2023/07/19 04:16:01;;;;;;;8.25;3.03;;;17.40;96.10;;;;;;4952604;28;20050;-80
2023/07/19 04:18:27;;;;;;;5.32;3.13;;;17.40;96.00;;;;;;4962281;28;20081;-80
2023/07/19 04:20:58;;;;;;;6.70;2.95;;;17.40;95.90;;;;;;4964623;28;20030;-80
2023/07/19 04:23:26;;;;;;;5.63;3.55;;;17.40;96.00;;;;;;4961555;28;20031;-80
2023/07/19 04:25:52;;;;;;;4.18;2.78;;;17.40;96.00;;;;;;4959867;28;20502;-80
2023/07/19 04:28:17;;;;;;;6.10;3.58;;;17.40;96.10;;;;;;4962079;28;20023;-80
2023/07/19 04:30:44;;;;;;;5.60;3.45;;;17.30;96.20;;;;;;4963873;28;20019;-80
2023/07/19 04:33:10;;;;;;;3.78;3.05;;;17.10;96.70;;;;;;4961614;28;20025;-80
2023/07/19 04:35:36;;;;;;;6.57;3.65;;;17.10;96.80;;;;;;4964230;28;20415;-81
2023/07/19 04:38:04;;;;;;;6.60;3.40;;;17.10;96.90;;;;;;4966409;28;20015;-80
2023/07/19 04:40:30;;;;;;;13.80;3.90;;;17.20;96.80;;;;;;4965278;28;20692;-80
2023/07/19 04:42:59;;;;;;;7.88;3.42;;;17.40;96.80;;;;;;4946976;28;20019;-80
2023/07/19 04:45:25;;;;;;;9.50;3.85;;;17.50;96.60;;;;;;4964821;28;20368;-80
2023/07/19 04:47:50;;;;;;;6.53;3.85;;;17.50;96.60;;;;;;4966694;28;20033;-81
2023/07/19 04:50:16;;;;;;;7.25;4.03;;;17.60;96.80;;;;;;4965520;28;20027;-80
2023/07/19 04:52:45;;;;;;;9.05;3.45;;;17.60;96.70;;;;;;4965645;28;20943;-80
2023/07/19 04:55:13;;;;;;;10.00;3.80;;;17.70;96.60;;;;;;4967121;28;20019;-80
2023/07/19 04:57:39;;;;;;;4.70;3.72;;;17.90;96.30;;;;;;4965326;28;20034;-81
2023/07/19 05:00:11;;;;;;;7.70;3.92;;;18.00;96.30;;;;;;4967353;28;20027;-80
2023/07/19 05:02:40;;;;;;;10.57;3.97;;;18.00;96.10;;;;;;4965187;28;20029;-80
2023/07/19 05:05:09;;;;;;;8.25;3.85;;;17.90;96.30;;;;;;4966886;28;20449;-80
2023/07/19 05:07:40;;;;;;;7.88;4.07;;;18.00;96.50;;;;;;4967229;28;20030;-80
2023/07/19 05:10:07;;;;;;;6.22;4.00;;;17.90;96.50;;;;;;4948545;28;20368;-81
2023/07/19 05:12:33;;;;;;;6.88;4.35;;;17.90;96.70;;;;;;4947880;28;20086;-80
2023/07/19 05:14:58;;;;;;;7.38;4.65;;;17.90;96.70;;;;;;4962590;28;20026;-80
2023/07/19 05:17:24;;;;;;;7.72;4.13;;;18.00;96.80;;;;;;4965295;28;20442;-81
2023/07/19 05:19:52;;;;;;;7.60;3.80;;;17.90;96.70;;;;;;4949655;28;20109;-80
2023/07/19 05:22:20;;;;;;;6.95;4.25;;;18.00;96.80;;;;;;4963730;28;20483;-80
2023/07/19 05:24:46;;;;;;;9.98;4.03;;;18.10;96.90;;;;;;4964829;28;20038;-80
2023/07/19 05:27:17;;;;;;;7.72;3.92;;;18.20;96.80;;;;;;4947525;28;20089;-81
2023/07/19 05:29:43;;;;;;;6.68;4.07;;;18.30;96.70;;;;;;4966302;28;20077;-81
2023/07/19 05:32:09;;;;;;;7.65;4.43;;;18.30;96.90;;;;;;4966260;28;20027;-80
2023/07/19 05:34:35;;;;;;;7.38;3.78;;;18.30;97.00;;;;;;4954543;28;20444;-80
2023/07/19 05:37:03;;;;;;;10.68;4.30;;;18.20;96.80;;;;;;4965762;28;20030;-81
2023/07/19 05:39:29;;;;;;;8.38;4.90;;;18.20;96.70;;;;;;4966937;28;20030;-81
2023/07/19 05:41:55;;;;;;;8.77;3.85;;;18.30;97.10;;;;;;4947025;28;20030;-81
2023/07/19 05:44:20;;;;;;;9.40;4.45;;;18.30;96.90;;;;;;4967457;28;20050;-80
2023/07/19 05:46:46;;;;;;;9.68;4.75;;;18.30;96.90;;;;;;4962040;28;20034;-80
2023/07/19 05:49:11;;;;;;;5.25;4.25;;;18.40;97.00;;;;;;4966380;28;20033;-80
2023/07/19 05:51:39;;;;;;;8.48;4.78;;;18.60;96.80;;;;;;4965431;28;20022;-80
2023/07/19 05:54:05;;;;;;;9.50;4.15;;;18.60;96.70;;;;;;4963949;28;20047;-80
2023/07/19 05:56:31;;;;;;;4.80;4.15;;;18.70;96.90;;;;;;4947087;28;20061;-80
2023/07/19 05:58:56;;;;;;;9.88;4.38;;;18.70;96.60;;;;;;4955285;28;20027;-80
2023/07/19 06:01:22;;;;;;;6.32;3.90;;;18.80;96.70;;;;;;4967399;28;20558;-80
2023/07/19 06:03:47;;;;;;;6.68;4.53;;;19.10;96.20;;;;;;4966341;28;20026;-80
2023/07/19 06:06:14;;;;;;;4.95;4.18;;;19.30;96.30;;;;;;4964186;28;20367;-81
2023/07/19 06:08:41;;;;;;;10.40;4.32;;;19.40;96.20;;;;;;4966728;28;20050;-80
2023/07/19 06:11:09;;;;;;;8.63;4.22;;;19.60;95.80;;;;;;4965721;28;20106;-80
2023/07/19 06:13:34;;;;;;;8.27;3.92;;;19.70;95.50;;;;;;4965906;28;20031;-80
2023/07/19 06:16:00;;;;;;;9.13;4.47;;;19.80;95.40;;;;;;4966956;28;20089;-80
2023/07/19 06:18:26;;;;;;;10.40;4.35;;;19.90;95.60;;;;;;4962402;28;20023;-81
2023/07/19 06:20:51;;;;;;;13.38;5.10;;;19.80;95.80;;;;;;4965457;28;20166;-81
2023/07/19 06:23:17;;;;;;;8.75;4.82;;;19.60;96.10;;;;;;4942154;28;20119;-80
2023/07/19 06:25:46;;;;;;;6.93;4.50;;;19.60;96.40;;;;;;4953965;28;20039;-80
2023/07/19 06:28:14;;;;;;;7.10;4.28;;;19.70;96.30;;;;;;4966418;28;20029;-80
2023/07/19 06:30:41;;;;;;;8.18;4.30;;;19.90;96.30;;;;;;4941900;28;20391;-80
2023/07/19 06:33:06;;;;;;;9.35;4.82;;;20.10;95.50;;;;;;4968020;28;20022;-80
2023/07/19 06:35:33;;;;;;;4.97;4.40;;;20.20;95.20;;;;;;4958427;28;20395;-80
2023/07/19 06:37:59;;;;;;;8.93;5.10;;;20.40;95.00;;;;;;4966396;28;20217;-81
2023/07/19 06:40:26;;;;;;;6.35;4.38;;;20.40;94.70;;;;;;4965970;28;20434;-81
2023/07/19 06:42:55;;;;;;;10.52;5.35;;;20.50;94.70;;;;;;4966365;28;20026;-81
2023/07/19 06:45:20;;;;;;;10.77;5.05;;;20.60;94.10;;;;;;4957540;28;20714;-81
2023/07/19 06:47:46;;;;;;;6.03;4.10;;;20.70;94.00;;;;;;4963398;28;20043;-80
2023/07/19 06:50:12;;;;;;;5.57;4.28;;;20.70;93.10;;;;;;4966168;28;20030;-81
2023/07/19 06:52:38;;;;;;;6.47;4.57;;;20.90;93.20;;;;;;4946335;28;20029;-81
2023/07/19 06:55:04;;;;;;;13.07;4.68;;;20.90;92.80;;;;;;4965097;28;20050;-80
2023/07/19 06:57:31;;;;;;;11.30;4.82;;;21.00;92.40;;;;;;4963999;28;20102;-81
2023/07/19 06:59:59;;;;;;;8.38;4.80;;;21.00;92.20;;;;;;4964840;28;20015;-80
2023/07/19 07:02:27;;;;;;;10.55;4.15;;;21.20;92.00;;;;;;4962678;28;20659;-80
2023/07/19 07:04:52;;;;;;;5.40;3.95;;;21.20;91.00;;;;;;4964993;28;20031;-81
2023/07/19 07:07:19;;;;;;;5.68;4.13;;;21.10;91.00;;;;;;4948187;28;20042;-81
2023/07/19 07:09:48;;;;;;;9.93;3.78;;;21.20;91.00;;;;;;4965723;28;20034;-81
2023/07/19 07:12:13;;;;;;;10.85;4.60;;;21.20;90.90;;;;;;4964552;28;20065;-80
2023/07/19 07:14:39;;;;;;;7.85;4.35;;;21.10;91.00;;;;;;4965598;28;20046;-81
2023/07/19 07:17:06;;;;;;;9.10;4.10;;;21.20;91.00;;;;;;4966891;28;20031;-81
2023/07/19 07:19:32;;;;;;;9.73;4.15;;;21.30;90.90;;;;;;4963422;28;20038;-80
2023/07/19 07:21:58;;;;;;;6.07;3.60;;;21.40;89.10;;;;;;4947476;28;20023;-81
2023/07/19 07:24:24;;;;;;;6.72;4.05;;;21.40;88.90;;;;;;4963739;28;20031;-81
2023/07/19 07:26:55;;;;;;;9.65;4.13;;;21.20;88.90;;;;;;4962850;28;20037;-81
2023/07/19 07:29:20;;;;;;;8.20;3.40;;;21.30;88.60;;;;;;4965504;28;20070;-80
2023/07/19 07:31:48;;;;;;;8.57;4.28;;;21.40;89.70;;;;;;4961749;28;20070;-81
2023/07/19 07:34:14;;;;;;;9.63;4.25;;;21.60;88.10;;;;;;4966049;28;20602;-81
2023/07/19 07:36:39;;;;;;;12.40;4.50;;;21.70;88.70;;;;;;4963194;28;20105;-81
2023/07/19 07:39:05;;;;;;;8.73;4.05;;;21.70;88.20;;;;;;4966921;28;20026;-81
2023/07/19 07:41:32;;;;;;;10.88;4.70;;;21.80;87.20;;;;;;4969073;28;20116;-80
2023/07/19 07:43:57;;;;;;;7.47;3.95;;;21.90;86.50;;;;;;4962479;28;20534;-81
2023/07/19 07:46:24;;;;;;;9.43;4.80;;;22.10;84.00;;;;;;4954324;28;20125;-81
2023/07/19 07:48:50;;;;;;;7.38;4.03;;;22.20;83.20;;;;;;4963783;28;20037;-81
2023/07/19 07:51:15;;;;;;;5.28;3.40;;;22.30;83.20;;;;;;4950907;28;20027;-81
2023/07/19 07:53:41;;;;;;;9.73;3.88;;;22.40;83.00;;;;;;4966383;28;20031;-81
2023/07/19 07:56:07;;;;;;;6.95;3.90;;;22.50;84.10;;;;;;4949201;28;20026;-81
2023/07/19 07:58:32;;;;;;;11.85;3.72;;;22.50;83.10;;;;;;4947228;28;20038;-80
2023/07/19 08:00:59;;;;;;;4.88;3.40;;;22.50;80.30;;;;;;4966565;28;20367;-81
2023/07/19 08:03:25;;;;;;;6.78;3.55;;;22.20;80.10;;;;;;4961337;28;20105;-81
2023/07/19 08:05:51;;;;;;;5.60;3.22;;;22.30;80.70;;;;;;4955554;28;20668;-80
2023/07/19 08:08:17;;;;;;;6.63;3.40;;;22.30;80.50;;;;;;4965335;28;20041;-81
2023/07/19 08:10:42;;;;;;;6.43;3.28;;;22.40;80.80;;;;;;4965218;28;20031;-80
2023/07/19 08:13:11;;;;;;;7.78;4.03;;;22.60;80.40;;;;;;4963600;28;20360;-81
2023/07/19 08:15:37;;;;;;;7.00;4.10;;;22.60;80.40;;;;;;4963683;28;20125;-81
2023/07/19 08:18:07;;;;;;;6.68;3.15;;;22.40;80.60;;;;;;4952740;28;20086;-80
2023/07/19 08:20:33;;;;;;;5.13;3.95;;;22.60;79.40;;;;;;4967119;28;20031;-81
2023/07/19 08:22:59;;;;;;;9.73;4.35;;;22.80;78.60;;;;;;4967503;28;20019;-81
2023/07/19 08:25:24;;;;;;;10.45;3.85;;;22.70;79.10;;;;;;4969728;28;20043;-81
2023/07/19 08:27:50;;;;;;;10.57;4.63;;;22.80;80.60;;;;;;4966272;28;20041;-81
2023/07/19 08:30:16;;;;;;;12.80;4.18;;;22.70;77.20;;;;;;4949148;28;20125;-80
2023/07/19 08:32:44;;;;;;;13.45;4.60;;;22.80;77.50;;;;;;4968573;28;20031;-80
2023/07/19 08:35:09;;;;;;;8.57;4.10;;;23.10;77.40;;;;;;4967396;28;20015;-80
2023/07/19 08:37:35;;;;;;;7.22;3.83;;;23.30;76.40;;;;;;4968407;28;20031;-80
2023/07/19 08:40:02;;;;;;;8.32;4.50;;;23.30;75.90;;;;;;4949986;28;20676;-81
2023/07/19 08:42:28;;;;;;;5.57;3.70;;;23.40;75.20;;;;;;4950140;28;20033;-81
2023/07/19 08:44:56;;;;;;;12.13;4.30;;;23.60;75.80;;;;;;4952544;28;20039;-80
2023/07/19 08:47:26;;;;;;;8.40;4.47;;;23.60;74.40;;;;;;4970458;28;20041;-80
2023/07/19 08:49:52;;;;;;;6.38;4.38;;;23.80;73.40;;;;;;4973613;28;20099;-80
2023/07/19 08:52:18;;;;;;;9.82;4.68;;;23.80;73.30;;;;;;4991063;28;20082;-80
2023/07/19 08:54:43;;;;;;;15.68;5.07;;;23.90;72.70;;;;;;4990921;28;20035;-81
2023/07/19 08:57:09;;;;;;;7.63;4.53;;;23.90;73.70;;;;;;4969388;28;20015;-80
2023/07/19 08:59:35;;;;;;;6.25;4.07;;;23.90;71.70;;;;;;4949551;28;20093;-80
2023/07/19 09:02:02;;;;;;;10.45;3.80;;;23.90;72.30;;;;;;4950814;28;20154;-80
2023/07/19 09:04:27;;;;;;;14.32;4.97;;;24.00;72.60;;;;;;4951214;28;20632;-81
2023/07/19 09:06:55;;;;;;;4.13;3.58;;;24.00;72.60;;;;;;4966844;28;20082;-81
2023/07/19 09:09:21;;;;;;;7.95;4.15;;;23.80;73.00;;;;;;4967699;28;20402;-80
2023/07/19 09:11:50;;;;;;;7.47;3.40;;;23.90;72.60;;;;;;4968152;28;20018;-80
2023/07/19 09:14:16;;;;;;;10.80;3.75;;;23.90;72.90;;;;;;4965116;28;20027;-81
2023/07/19 09:16:44;;;;;;;11.48;3.97;;;23.80;72.50;;;;;;4963776;28;20031;-80
2023/07/19 09:19:10;;;;;;;8.85;3.47;;;23.70;73.30;;;;;;4967771;28;20027;-81
2023/07/19 09:21:40;;;;;;;6.32;3.17;;;23.70;73.20;;;;;;4957518;28;20479;-81
2023/07/19 09:24:06;;;;;;;8.82;3.85;;;23.70;72.10;;;;;;4949098;28;20491;-81
2023/07/19 09:26:48;;;;;;;6.18;3.33;;;23.50;74.10;;;;;;4967955;28;20031;-80
2023/07/19 09:29:17;;;;;;;7.97;3.58;;;23.70;72.90;;;;;;4957184;28;21559;-81
2023/07/19 09:32:00;;;;;;;7.55;3.20;;;23.80;72.50;;;;;;4948581;28;20104;-80
2023/07/19 09:34:37;;;;;;;7.85;2.92;;;24.00;72.30;;;;;;4965909;28;20048;-81
2023/07/19 09:37:05;;;;;;;8.73;3.10;;;24.20;71.30;;;;;;4964036;28;20027;-81
2023/07/19 09:39:34;;;;;;;5.43;3.03;;;24.20;70.90;;;;;;4949515;28;20022;-80
2023/07/19 09:42:01;;;;;;;7.78;3.42;;;24.20;71.30;;;;;;4949368;28;20022;-81
2023/07/19 09:44:27;;;;;;;6.47;3.42;;;24.30;70.60;;;;;;4968188;28;20038;-80
2023/07/19 09:46:54;;;;;;;10.30;3.05;;;24.00;71.00;;;;;;4950174;28;20390;-81
2023/07/19 09:49:20;;;;;;;4.93;3.08;;;24.20;70.90;;;;;;4965370;28;20065;-81
2023/07/19 09:51:48;;;;;;;7.22;3.17;;;24.40;70.20;;;;;;4965737;28;20479;-80
2023/07/19 09:54:15;;;;;;;6.22;3.17;;;25.00;68.80;;;;;;4966931;28;20138;-80
2023/07/19 09:56:41;;;;;;;8.40;3.05;;;25.20;67.20;;;;;;4963627;28;20117;-80
2023/07/19 09:59:24;;;;;;;6.82;3.78;;;25.10;67.80;;;;;;4964880;28;20077;-81
2023/07/19 10:01:50;;;;;;;7.30;3.90;;;25.20;68.10;;;;;;4963167;28;20078;-81
2023/07/19 10:04:38;;;;;;;7.50;3.70;;;25.20;67.30;;;;;;4962777;28;20034;-80
2023/07/19 10:07:07;;;;;;;7.18;3.40;;;25.40;66.40;;;;;;4966252;28;20035;-80
2023/07/19 10:09:39;;;;;;;5.57;3.15;;;25.60;67.70;;;;;;4948799;28;20027;-81
2023/07/19 10:12:08;;;;;;;5.93;3.08;;;25.60;66.30;;;;;;4964048;28;20639;-81
2023/07/19 10:14:36;;;;;;;4.68;2.90;;;25.30;66.60;;;;;;4965473;28;20054;-80
2023/07/19 10:17:06;;;;;;;7.43;2.70;;;25.40;66.40;;;;;;4965227;28;20027;-81
2023/07/19 10:19:31;;;;;;;6.10;3.40;;;25.40;65.10;;;;;;4945688;28;20018;-80
2023/07/19 10:22:04;;;;;;;14.73;2.75;;;25.30;65.50;;;;;;4965726;28;20455;-81
2023/07/19 10:24:31;;;;;;;;;;;25.50;65.10;;;;;;4961806;28;20069;-80
2023/07/19 10:27:00;;;;;;;3.83;2.40;;;25.50;65.30;;;;;;4965861;28;20186;-81
2023/07/19 10:29:27;;;;;;;9.85;2.80;;;25.50;65.50;;;;;;4947249;28;20472;-81
2023/07/19 10:31:53;;;;;;;5.35;3.35;;;25.50;63.60;;;;;;4946438;28;20243;-80
2023/07/19 10:34:29;;;;;;;5.93;2.83;;;25.10;63.70;;;;;;4965984;28;20359;-83
2023/07/19 10:36:59;;;;;;;14.02;2.75;;;24.90;65.20;;;;;;4963151;28;20093;-81
2023/07/19 10:39:24;;;;;;;6.82;2.72;;;24.70;65.00;;;;;;4964590;28;20023;-81
2023/07/19 10:41:50;;;;;;;6.82;2.80;;;24.80;66.30;;;;;;4949372;28;20041;-81
2023/07/19 10:44:16;;;;;;;5.85;3.05;;;24.60;65.50;;;;;;4963445;28;20035;-81
2023/07/19 10:46:42;;;;;;;6.57;3.13;;;24.60;66.30;;;;;;4951102;28;20031;-79
2023/07/19 10:49:08;;;;;;;6.30;2.60;;;24.60;65.70;;;;;;4952799;28;20038;-81
2023/07/19 10:51:33;;;;;;;8.30;3.70;;;24.70;65.50;;;;;;4948137;28;20035;-81
2023/07/19 10:53:59;;;;;;;4.88;2.45;;;24.70;65.90;;;;;;4952739;28;20031;-80
2023/07/19 10:56:26;;;;;;;2.72;2.10;;;24.80;65.90;;;;;;4965200;28;20118;-80
2023/07/19 10:58:57;;;;;;;7.65;2.00;;;24.80;64.50;;;;;;4965351;28;20031;-81
2023/07/19 11:01:23;;;;;;;7.10;2.67;;;24.90;65.90;;;;;;4963488;28;20494;-81
2023/07/19 11:03:48;;;;;;;3.72;1.98;;;24.90;65.20;;;;;;4963227;28;20027;-81
2023/07/19 11:06:14;;;;;;;6.50;2.38;;;25.20;64.40;;;;;;4946070;28;20113;-80
2023/07/19 11:08:40;;;;;;;7.55;2.35;;;25.70;61.00;;;;;;4965496;28;20030;-81
2023/07/19 11:11:07;;;;;;;10.75;2.25;;;25.90;61.10;;;;;;4947642;28;20035;-80
2023/07/19 11:13:35;;;;;;;4.72;2.78;;;26.00;60.80;;;;;;4968814;28;20074;-80
2023/07/19 11:16:01;;;;;;;9.38;2.55;;;26.30;59.30;;;;;;4966404;28;20022;-81
2023/07/19 11:18:30;;;;;;;4.53;2.22;;;26.30;57.10;;;;;;4986619;28;20033;-80
2023/07/19 11:20:57;;;;;;;4.95;1.88;;;26.20;58.00;;;;;;4961424;28;20110;-81
2023/07/19 11:23:26;;;;;;;3.40;1.63;;;26.50;58.50;;;;;;4961133;28;20062;-80
2023/07/19 11:26:07;;;;;;;5.22;2.10;;;27.00;57.50;;;;;;4962297;28;20192;-78
2023/07/19 11:28:45;;;;;;;4.07;2.05;;;27.60;56.30;;;;;;4958610;28;20031;-79
2023/07/19 11:31:35;;;;;;;2.65;2.20;;;27.80;56.30;;;;;;4962993;28;21000;-78
2023/07/19 11:34:12;;;;;;;3.17;2.13;;;27.90;56.00;;;;;;4949297;28;20117;-79
2023/07/19 11:36:42;;;;;;;3.05;2.33;;;27.70;56.60;;;;;;4944497;28;20029;-78
2023/07/19 11:39:21;;;;;;;10.18;2.40;;;27.50;57.00;;;;;;4962959;28;20027;-77
2023/07/19 11:41:48;;;;;;;4.32;2.35;;;27.40;57.30;;;;;;4945681;28;20391;-77
2023/07/19 11:44:19;;;;;;;4.85;2.38;;;27.40;57.40;;;;;;4964364;28;20687;-76
2023/07/19 11:46:46;;;;;;;3.40;2.42;;;27.30;57.30;;;;;;4947964;28;20034;-77
2023/07/19 11:49:12;;;;;;;7.63;2.30;;;27.20;57.80;;;;;;4963333;28;20030;-78
2023/07/19 11:51:38;;;;;;;6.57;2.33;;;27.20;58.30;;;;;;4964100;28;20494;-78
2023/07/19 11:54:06;;;;;;;5.57;2.72;;;27.20;58.10;;;;;;4964375;28;20307;-78
2023/07/19 11:56:32;;;;;;;5.65;2.72;;;27.30;58.90;;;;;;4949023;28;20034;-77
2023/07/19 11:58:58;;;;;;;6.57;3.00;;;27.20;58.10;;;;;;4968960;28;20373;-78
2023/07/19 12:01:27;;;;;;;5.53;2.78;;;27.40;58.30;;;;;;4968283;28;20517;-78
2023/07/19 12:03:53;;;;;;;4.68;2.67;;;27.30;59.00;;;;;;4950426;28;20430;-78
2023/07/19 12:06:18;;;;;;;5.10;2.85;;;27.30;59.50;;;;;;4949219;28;20041;-79
2023/07/19 12:08:45;;;;;;;6.45;3.35;;;26.90;60.60;;;;;;4950567;28;20431;-78
2023/07/19 12:11:13;;;;;;;5.68;2.63;;;26.80;61.10;;;;;;4951173;28;20022;-77
2023/07/19 12:13:38;;;;;;;6.95;2.88;;;26.80;61.70;;;;;;4966568;28;20027;-78
2023/07/19 12:16:04;;;;;;;5.63;3.58;;;26.40;62.70;;;;;;4967257;28;20033;-78
2023/07/19 12:18:30;;;;;;;7.32;3.70;;;26.50;62.50;;;;;;4969031;28;20027;-77
2023/07/19 12:20:57;;;;;;;4.28;3.38;;;26.70;63.30;;;;;;4944433;28;20868;-78
2023/07/19 12:23:23;;;;;;;6.78;2.80;;;26.40;62.80;;;;;;4969153;28;20431;-78
2023/07/19 12:25:50;;;;;;;10.90;3.55;;;26.70;63.70;;;;;;4968740;28;20097;-79
2023/07/19 12:28:16;;;;;;;4.32;3.38;;;26.90;62.00;;;;;;4966068;28;20035;-78
2023/07/19 12:30:42;;;;;;;7.53;3.25;;;26.90;62.90;;;;;;4950911;28;20034;-78
2023/07/19 12:33:08;;;;;;;10.27;3.38;;;26.90;64.30;;;;;;4951256;28;20507;-77
2023/07/19 12:35:36;;;;;;;5.10;2.83;;;27.20;63.00;;;;;;4955982;28;20033;-77
2023/07/19 12:38:04;;;;;;;7.05;3.20;;;27.30;62.80;;;;;;4943980;28;20058;-78
2023/07/19 12:40:33;;;;;;;8.00;3.00;;;27.20;62.90;;;;;;4968580;28;20398;-78
2023/07/19 12:42:59;;;;;;;6.97;2.42;;;27.30;64.30;;;;;;4968336;28;20565;-78
2023/07/19 12:45:24;;;;;;;5.22;2.72;;;27.30;62.40;;;;;;4967670;28;20051;-78
2023/07/19 12:47:50;;;;;;;6.05;2.80;;;27.40;62.70;;;;;;4967504;28;20554;-78